createdAt,value
2023-03-12T00:00:39.212Z,2.34
2023-03-12T00:03:41.176Z,2.29
2023-03-12T00:06:42.851Z,2.18
2023-03-12T00:09:45.782Z,2.21
2023-03-12T00:12:47.418Z,2.24
2023-03-12T00:15:49.132Z,2.09
2023-03-12T00:18:52.690Z,2.07
2023-03-12T00:21:54.374Z,2.22
2023-03-12T00:24:57.324Z,2.21
2023-03-12T00:27:58.998Z,2.18
2023-03-12T00:31:01.761Z,2.10
2023-03-12T00:34:03.452Z,2.25
2023-03-12T00:37:05.343Z,2.35
2023-03-12T00:40:09.642Z,2.40
2023-03-12T00:43:11.316Z,2.40
2023-03-12T00:46:13.861Z,2.54
2023-03-12T00:49:15.511Z,2.69
2023-03-12T00:52:17.217Z,2.92
2023-03-12T00:55:18.887Z,2.80
2023-03-12T00:58:20.631Z,2.58
2023-03-12T01:01:22.536Z,2.58
2023-03-12T01:04:24.446Z,2.52
2023-03-12T01:07:26.190Z,2.39
2023-03-12T01:10:28.060Z,1.95
2023-03-12T01:13:30.530Z,1.84
2023-03-12T01:16:32.517Z,2.01
2023-03-12T01:19:34.196Z,1.89
2023-03-12T01:22:36.557Z,1.84
2023-03-12T01:25:38.334Z,1.64
2023-03-12T01:28:39.985Z,1.74
2023-03-12T01:31:41.670Z,1.79
2023-03-12T01:34:44.552Z,1.94
2023-03-12T01:37:46.388Z,1.96
2023-03-12T01:40:48.083Z,2.12
2023-03-12T01:43:49.898Z,2.01
2023-03-12T01:46:51.737Z,2.05
2023-03-12T01:49:57.030Z,2.21
2023-03-12T01:52:59.492Z,2.34
2023-03-12T01:56:02.220Z,2.72
2023-03-12T01:59:23.208Z,2.97
2023-03-12T02:02:28.723Z,3.17
2023-03-12T02:05:48.479Z,3.29
2023-03-12T02:08:50.841Z,3.46
2023-03-12T02:11:52.559Z,3.46
2023-03-12T02:14:54.960Z,3.47
2023-03-12T02:17:56.693Z,3.51
2023-03-12T02:21:24.098Z,3.55
2023-03-12T02:24:30.827Z,3.64
2023-03-12T02:27:34.659Z,3.71
2023-03-12T02:30:37.273Z,3.71
2023-03-12T02:33:39.762Z,3.73
2023-03-12T02:36:41.563Z,3.67
2023-03-12T02:39:47.656Z,3.78
2023-03-12T02:42:49.470Z,3.79
2023-03-12T02:45:51.505Z,3.74
2023-03-12T02:48:53.972Z,3.79
2023-03-12T02:51:56.360Z,3.87
2023-03-12T02:54:58.188Z,3.86
2023-03-12T02:57:59.833Z,3.91
2023-03-12T03:01:01.986Z,4.00
2023-03-12T03:04:06.386Z,4.00
2023-03-12T03:07:08.063Z,3.98
2023-03-12T03:10:10.489Z,4.02
2023-03-12T03:13:12.654Z,4.04
2023-03-12T03:16:14.400Z,4.09
2023-03-12T03:19:16.408Z,4.05
2023-03-12T03:22:19.671Z,4.07
2023-03-12T03:25:23.213Z,4.11
2023-03-12T03:28:26.916Z,4.25
2023-03-12T03:31:28.951Z,4.22
2023-03-12T03:34:31.191Z,4.29
2023-03-12T03:37:32.788Z,4.28
2023-03-12T03:40:34.482Z,4.20
2023-03-12T03:43:36.222Z,4.30
2023-03-12T03:46:38.189Z,4.26
2023-03-12T03:49:42.886Z,4.28
2023-03-12T03:52:45.995Z,4.35
2023-03-12T03:55:48.118Z,4.39
2023-03-12T03:58:52.306Z,4.45
2023-03-12T04:01:56.118Z,4.47
2023-03-12T04:04:59.121Z,4.44
2023-03-12T04:08:05.388Z,4.49
2023-03-12T04:11:14.854Z,4.57
2023-03-12T04:14:17.103Z,4.56
2023-03-12T04:17:20.262Z,4.65
2023-03-12T04:20:22.372Z,4.60
2023-03-12T04:23:24.139Z,4.72
2023-03-12T04:26:26.076Z,4.72
2023-03-12T04:29:28.837Z,4.74
2023-03-12T04:32:31.074Z,4.84
2023-03-12T04:35:32.930Z,4.87
2023-03-12T04:38:34.895Z,4.81
2023-03-12T04:41:36.934Z,4.86
2023-03-12T04:44:43.447Z,4.84
2023-03-12T04:47:45.321Z,4.80
2023-03-12T04:50:47.312Z,4.74
2023-03-12T04:53:48.925Z,4.64
2023-03-12T04:56:51.215Z,4.63
2023-03-12T04:59:55.590Z,4.59
2023-03-12T05:02:57.337Z,4.54
2023-03-12T05:05:59.239Z,4.49
2023-03-12T05:09:01.008Z,4.53
2023-03-12T05:12:02.748Z,4.52
2023-03-12T05:15:04.818Z,4.52
2023-03-12T05:18:06.422Z,4.55
2023-03-12T05:21:12.167Z,4.52
2023-03-12T05:24:13.936Z,4.46
2023-03-12T05:27:15.768Z,4.49
2023-03-12T05:30:17.634Z,4.57
2023-03-12T05:33:19.474Z,4.62
2023-03-12T05:36:21.768Z,4.55
2023-03-12T05:39:24.588Z,4.63
2023-03-12T05:42:26.339Z,4.68
2023-03-12T05:45:28.429Z,4.69
2023-03-12T05:48:31.845Z,4.73
2023-03-12T05:51:33.849Z,4.76
2023-03-12T05:54:35.757Z,4.82
2023-03-12T05:57:39.104Z,4.91
2023-03-12T06:00:41.735Z,4.92
2023-03-12T06:03:45.046Z,5.00
2023-03-12T06:06:47.281Z,5.00
2023-03-12T06:09:49.159Z,5.23
2023-03-12T06:12:51.678Z,5.27
2023-03-12T06:15:53.318Z,5.26
2023-03-12T06:19:01.124Z,5.37
2023-03-12T06:22:04.215Z,5.50
2023-03-12T06:25:06.515Z,5.40
2023-03-12T06:28:09.152Z,5.72
2023-03-12T06:31:10.927Z,5.91
2023-03-12T06:34:12.694Z,5.90
2023-03-12T06:37:14.329Z,6.06
2023-03-12T06:40:16.049Z,6.11
2023-03-12T06:43:17.591Z,6.09
2023-03-12T06:46:21.961Z,6.40
2023-03-12T06:49:24.136Z,6.50
2023-03-12T06:52:25.853Z,6.51
2023-03-12T06:55:27.910Z,6.63
2023-03-12T06:58:30.066Z,6.48
2023-03-12T07:01:31.753Z,6.49
2023-03-12T07:04:33.755Z,6.63
2023-03-12T07:07:35.334Z,6.80
2023-03-12T07:10:37.106Z,6.84
2023-03-12T07:13:39.007Z,6.84
2023-03-12T07:16:40.612Z,6.76
2023-03-12T07:19:42.291Z,6.95
2023-03-12T07:22:43.884Z,7.01
2023-03-12T07:25:45.978Z,7.01
2023-03-12T07:28:47.791Z,7.07
2023-03-12T07:31:49.349Z,7.03
2023-03-12T07:34:50.904Z,7.13
2023-03-12T07:37:52.520Z,7.01
2023-03-12T07:40:56.137Z,6.88
2023-03-12T07:43:57.876Z,6.85
2023-03-12T07:47:09.716Z,6.89
2023-03-12T07:50:19.310Z,6.91
2023-03-12T07:53:21.034Z,6.97
2023-03-12T07:56:23.196Z,7.08
2023-03-12T07:59:26.905Z,7.07
2023-03-12T08:02:28.651Z,7.17
2023-03-12T08:05:30.402Z,7.13
2023-03-12T08:08:32.362Z,7.13
2023-03-12T08:11:34.468Z,7.11
2023-03-12T08:14:36.187Z,7.25
2023-03-12T08:17:38.015Z,7.51
2023-03-12T08:20:39.638Z,7.49
2023-03-12T08:23:41.260Z,7.62
2023-03-12T08:26:42.884Z,7.61
2023-03-12T08:29:44.580Z,7.70
2023-03-12T08:32:46.608Z,7.73
2023-03-12T08:35:50.508Z,7.78
2023-03-12T08:38:52.207Z,7.75
2023-03-12T08:41:55.509Z,7.80
2023-03-12T08:44:57.194Z,7.87
2023-03-12T08:47:58.763Z,7.80
2023-03-12T08:51:04.203Z,7.86
2023-03-12T08:54:05.993Z,7.80
2023-03-12T08:57:07.591Z,7.86
2023-03-12T09:00:14.946Z,7.88
2023-03-12T09:03:17.103Z,7.90
2023-03-12T09:06:19.504Z,7.99
2023-03-12T09:09:21.131Z,8.09
2023-03-12T09:12:23.500Z,8.16
2023-03-12T09:15:25.255Z,8.18
2023-03-12T09:18:27.446Z,8.20
2023-03-12T09:21:29.297Z,8.31
2023-03-12T09:24:31.018Z,8.33
2023-03-12T09:27:37.304Z,8.28
2023-03-12T09:30:39.111Z,8.35
2023-03-12T09:33:40.720Z,8.42
2023-03-12T09:36:42.391Z,8.50
2023-03-12T09:39:43.967Z,8.72
2023-03-12T09:43:17.990Z,8.92
2023-03-12T09:46:33.346Z,9.10
2023-03-12T09:49:45.191Z,9.24
2023-03-12T09:52:57.046Z,9.30
2023-03-12T09:56:00.738Z,9.35
2023-03-12T09:59:02.937Z,9.35
2023-03-12T10:02:29.797Z,9.40
2023-03-12T10:05:34.421Z,9.50
2023-03-12T10:08:56.768Z,9.51
2023-03-12T10:12:21.180Z,9.60
2023-03-12T10:15:27.903Z,9.61
2023-03-12T10:18:48.966Z,9.67
2023-03-12T10:22:25.504Z,9.89
2023-03-12T10:25:39.366Z,10.22
2023-03-12T10:29:04.982Z,10.33
2023-03-12T10:32:12.266Z,10.57
2023-03-12T10:35:21.867Z,10.52
2023-03-12T10:38:29.643Z,10.85
2023-03-12T10:41:34.786Z,11.10
2023-03-12T10:44:36.580Z,10.90
2023-03-12T10:47:42.996Z,10.89
2023-03-12T10:51:02.139Z,10.91
2023-03-12T10:54:22.468Z,11.36
2023-03-12T10:57:40.600Z,11.78
2023-03-12T11:00:58.690Z,11.65
2023-03-12T11:04:19.767Z,11.52
2023-03-12T11:07:27.776Z,11.58
2023-03-12T11:10:32.473Z,11.54
2023-03-12T11:13:37.982Z,11.41
2023-03-12T11:16:40.008Z,11.30
2023-03-12T11:19:41.641Z,11.32
2023-03-12T11:22:43.482Z,11.25
2023-03-12T11:25:52.090Z,11.22
2023-03-12T11:29:04.458Z,11.27
2023-03-12T11:32:12.257Z,11.28
2023-03-12T11:35:18.267Z,11.35
2023-03-12T11:38:25.386Z,11.35
2023-03-12T11:41:54.644Z,11.26
2023-03-12T11:45:06.041Z,11.36
2023-03-12T11:48:31.062Z,11.19
2023-03-12T11:51:49.826Z,11.01
2023-03-12T11:54:51.367Z,11.06
2023-03-12T11:58:12.656Z,10.99
2023-03-12T12:01:32.440Z,10.87
2023-03-12T12:04:58.794Z,10.68
2023-03-12T12:08:40.914Z,10.51
2023-03-12T12:12:03.515Z,10.54
2023-03-12T12:15:34.586Z,10.55
2023-03-12T12:19:18.342Z,10.59
2023-03-12T12:22:41.887Z,10.59
2023-03-12T12:25:58.946Z,10.54
2023-03-12T12:29:18.630Z,10.51
2023-03-12T12:32:59.041Z,10.40
2023-03-12T12:36:01.384Z,10.42
2023-03-12T12:39:11.949Z,10.37
2023-03-12T12:42:23.049Z,10.36
2023-03-12T12:45:29.063Z,10.46
2023-03-12T12:48:48.611Z,10.67
2023-03-12T12:52:01.717Z,11.12
2023-03-12T12:55:20.112Z,11.28
2023-03-12T12:58:30.954Z,11.33
2023-03-12T13:01:35.428Z,11.38
2023-03-12T13:04:39.326Z,11.38
2023-03-12T13:07:40.988Z,11.42
2023-03-12T13:10:53.010Z,11.41
2023-03-12T13:14:04.626Z,11.53
2023-03-12T13:17:27.877Z,11.62
2023-03-12T13:20:33.537Z,11.78
2023-03-12T13:23:59.759Z,11.86
2023-03-12T13:27:17.554Z,12.09
2023-03-12T13:30:46.640Z,12.54
2023-03-12T13:33:50.973Z,12.73
2023-03-12T13:36:59.420Z,13.32
2023-03-12T13:40:02.218Z,13.11
2023-03-12T13:43:10.007Z,13.68
2023-03-12T13:46:14.859Z,13.78
2023-03-12T13:49:18.791Z,13.69
2023-03-12T13:52:27.093Z,13.21
2023-03-12T13:55:31.538Z,12.85
2023-03-12T13:58:41.685Z,13.12
2023-03-12T14:01:48.730Z,13.32
2023-03-12T14:04:50.861Z,13.90
2023-03-12T14:08:04.356Z,14.22
2023-03-12T14:11:40.265Z,14.59
2023-03-12T14:14:50.657Z,13.66
2023-03-12T14:18:03.056Z,13.05
2023-03-12T14:21:10.088Z,12.77
2023-03-12T14:24:47.927Z,12.85
2023-03-12T14:27:49.883Z,12.84
2023-03-12T14:31:02.278Z,12.86
2023-03-12T14:34:20.472Z,12.86
2023-03-12T14:37:28.256Z,12.82
2023-03-12T14:40:38.345Z,12.77
2023-03-12T14:43:42.083Z,12.71
2023-03-12T14:46:56.084Z,12.70
2023-03-12T14:49:58.362Z,12.72
2023-03-12T14:53:20.197Z,12.88
2023-03-12T14:56:29.506Z,12.76
2023-03-12T14:59:35.044Z,12.72
2023-03-12T15:02:37.798Z,12.69
2023-03-12T15:05:48.037Z,12.68
2023-03-12T15:08:49.929Z,12.63
2023-03-12T15:11:58.076Z,12.68
2023-03-12T15:15:17.812Z,12.59
2023-03-12T15:18:25.819Z,12.64
2023-03-12T15:21:27.538Z,12.58
2023-03-12T15:24:34.458Z,12.54
2023-03-12T15:27:36.062Z,12.55
2023-03-12T15:30:39.256Z,12.57
2023-03-12T15:33:43.231Z,12.50
2023-03-12T15:36:49.764Z,12.51
2023-03-12T15:39:53.269Z,12.46
2023-03-12T15:42:59.173Z,12.51
2023-03-12T15:46:03.486Z,12.44
2023-03-12T15:49:05.197Z,12.41
2023-03-12T15:52:27.113Z,12.47
2023-03-12T15:55:31.824Z,12.43
2023-03-12T15:58:41.847Z,12.38
2023-03-12T16:01:47.804Z,12.47
2023-03-12T16:04:49.387Z,12.47
2023-03-12T16:07:51.098Z,12.40
2023-03-12T16:10:53.250Z,12.33
2023-03-12T16:14:13.549Z,12.36
2023-03-12T16:17:19.292Z,12.29
2023-03-12T16:20:21.034Z,12.32
2023-03-12T16:23:22.801Z,12.28
2023-03-12T16:26:24.420Z,12.26
2023-03-12T16:29:34.503Z,12.22
2023-03-12T16:32:36.117Z,12.18
2023-03-12T16:35:37.939Z,12.10
2023-03-12T16:38:39.592Z,12.08
2023-03-12T16:41:42.186Z,11.95
2023-03-12T16:44:46.313Z,12.05
2023-03-12T16:47:54.708Z,11.98
2023-03-12T16:50:58.869Z,11.91
2023-03-12T16:54:09.769Z,11.98
2023-03-12T16:57:32.980Z,12.00
2023-03-12T17:00:35.380Z,12.00
2023-03-12T17:03:39.719Z,12.08
2023-03-12T17:06:41.554Z,12.06
2023-03-12T17:09:43.182Z,12.08
2023-03-12T17:12:46.870Z,12.05
2023-03-12T17:15:50.227Z,12.00
2023-03-12T17:18:51.919Z,12.01
2023-03-12T17:21:53.694Z,11.98
2023-03-12T17:24:55.247Z,11.93
2023-03-12T17:27:57.475Z,11.98
2023-03-12T17:30:59.101Z,11.87
2023-03-12T17:34:03.846Z,12.00
2023-03-12T17:37:05.488Z,11.97
2023-03-12T17:40:09.446Z,12.02
2023-03-12T17:43:11.126Z,12.00
2023-03-12T17:46:12.839Z,11.97
2023-03-12T17:49:14.487Z,11.71
2023-03-12T17:52:16.152Z,11.86
2023-03-12T17:55:17.785Z,11.85
2023-03-12T17:58:19.406Z,11.90
2023-03-12T18:01:20.981Z,11.79
2023-03-12T18:04:22.635Z,11.75
2023-03-12T18:07:24.402Z,11.81
2023-03-12T18:10:26.013Z,11.78
2023-03-12T18:13:27.579Z,11.73
2023-03-12T18:16:29.396Z,11.73
2023-03-12T18:19:31.033Z,11.60
2023-03-12T18:22:32.671Z,11.68
2023-03-12T18:25:34.280Z,11.68
2023-03-12T18:28:35.933Z,11.64
2023-03-12T18:31:37.728Z,11.64
2023-03-12T18:34:42.340Z,11.61
2023-03-12T18:37:44.886Z,11.53
2023-03-12T18:40:46.503Z,11.48
2023-03-12T18:43:48.128Z,11.56
2023-03-12T18:46:51.773Z,11.50
2023-03-12T18:49:55.154Z,11.51
2023-03-12T18:52:56.790Z,11.46
2023-03-12T18:55:59.150Z,11.47
2023-03-12T18:59:00.780Z,11.38
2023-03-12T19:02:02.389Z,11.38
2023-03-12T19:05:04.261Z,11.53
2023-03-12T19:08:06.071Z,11.47
2023-03-12T19:11:13.356Z,11.54
2023-03-12T19:14:15.165Z,11.51
2023-03-12T19:17:16.954Z,11.46
2023-03-12T19:20:18.683Z,11.43
2023-03-12T19:23:20.627Z,11.43
2023-03-12T19:26:22.641Z,11.50
2023-03-12T19:29:24.360Z,11.50
2023-03-12T19:32:33.284Z,11.63
2023-03-12T19:35:43.850Z,11.56
2023-03-12T19:38:45.462Z,11.47
2023-03-12T19:41:47.057Z,11.54
2023-03-12T19:44:51.737Z,11.56
2023-03-12T19:47:53.423Z,11.51
2023-03-12T19:50:55.983Z,11.30
2023-03-12T19:53:57.585Z,11.42
2023-03-12T19:56:59.282Z,11.31
2023-03-12T20:00:00.943Z,11.39
2023-03-12T20:03:02.824Z,11.26
2023-03-12T20:06:08.037Z,11.13
2023-03-12T20:09:09.865Z,11.21
2023-03-12T20:12:11.544Z,11.19
2023-03-12T20:15:13.209Z,11.21
2023-03-12T20:18:15.537Z,11.24
2023-03-12T20:21:17.129Z,11.20
2023-03-12T20:24:18.757Z,11.08
2023-03-12T20:27:21.168Z,11.07
2023-03-12T20:30:22.800Z,11.10
2023-03-12T20:33:24.470Z,11.15
2023-03-12T20:36:26.217Z,11.10
2023-03-12T20:39:27.825Z,11.14
2023-03-12T20:42:29.439Z,11.11
2023-03-12T20:45:34.537Z,11.05
2023-03-12T20:48:36.175Z,11.14
2023-03-12T20:51:37.780Z,11.08
2023-03-12T20:54:39.385Z,11.18
2023-03-12T20:57:40.954Z,11.23
2023-03-12T21:00:44.239Z,11.34
2023-03-12T21:03:45.970Z,11.43
2023-03-12T21:06:47.773Z,11.36
2023-03-12T21:09:49.856Z,11.38
2023-03-12T21:12:51.560Z,11.40
2023-03-12T21:15:54.261Z,11.31
2023-03-12T21:18:57.442Z,11.43
2023-03-12T21:21:59.286Z,11.39
2023-03-12T21:25:01.303Z,11.35
2023-03-12T21:28:04.585Z,11.42
2023-03-12T21:31:09.062Z,11.28
2023-03-12T21:34:10.744Z,11.09
2023-03-12T21:37:12.382Z,10.92
2023-03-12T21:40:14.669Z,11.02
2023-03-12T21:43:16.257Z,11.16
2023-03-12T21:46:20.395Z,11.04
2023-03-12T21:49:22.290Z,11.08
2023-03-12T21:52:23.906Z,11.02
2023-03-12T21:55:25.522Z,11.01
2023-03-12T21:58:28.933Z,10.92
2023-03-12T22:01:30.499Z,10.88
2023-03-12T22:04:32.263Z,10.75
2023-03-12T22:07:33.895Z,10.92
2023-03-12T22:10:35.466Z,10.88
2023-03-12T22:13:37.714Z,10.85
2023-03-12T22:16:39.700Z,11.03
2023-03-12T22:19:42.101Z,10.93
2023-03-12T22:22:43.918Z,10.98
2023-03-12T22:25:45.713Z,10.83
2023-03-12T22:28:50.726Z,10.91
2023-03-12T22:31:52.276Z,10.88
2023-03-12T22:34:53.863Z,10.97
2023-03-12T22:37:56.253Z,10.94
2023-03-12T22:40:57.889Z,10.91
2023-03-12T22:44:05.434Z,10.90
2023-03-12T22:47:07.367Z,10.86
2023-03-12T22:50:10.016Z,10.91
2023-03-12T22:53:11.595Z,10.91
2023-03-12T22:56:14.069Z,10.86
2023-03-12T22:59:16.458Z,10.91
2023-03-12T23:02:18.491Z,10.96
2023-03-12T23:05:20.381Z,11.16
2023-03-12T23:08:23.180Z,11.06
2023-03-12T23:11:27.977Z,11.08
2023-03-12T23:14:29.650Z,10.95
2023-03-12T23:17:31.254Z,11.26
2023-03-12T23:20:32.834Z,11.19
2023-03-12T23:23:36.013Z,11.18
2023-03-12T23:26:37.730Z,11.17
2023-03-12T23:29:39.480Z,11.24
2023-03-12T23:32:41.209Z,11.19
2023-03-12T23:35:42.975Z,11.20
2023-03-12T23:38:46.486Z,11.33
2023-03-12T23:41:48.224Z,11.26
2023-03-12T23:44:49.858Z,11.13
2023-03-12T23:47:51.646Z,11.41
2023-03-12T23:50:53.886Z,11.34
2023-03-12T23:53:57.999Z,11.38
2023-03-12T23:56:59.942Z,11.37
